No data was retrieved for https://query.yahooapis.com/v1/public/yql?q=select+%2A+from+weather.forecast+where+woeid%3D731260&format=xml&u=c



METAR rapporten vliegvelden

   
EHAM - Amsterdam
Gewijzigd: 21-05-2019 02:25
Nevel, Bewolking  
Nevel, Bewolking  
   Wind: NW 20.4 km/h
Wind: NW 20.4 km/h
Temperatuur: 12°C
Dauwpunt: 11°C
Vochtigheid: 94%
Barometer: 1011 hPa
Bewolking: Bewolking
Zicht: 2 km
Bewolking: Gedeeltelijk bewolkt 200 ft,
Bewolking 300 ft
EHAM 210025Z 32011KT 2400 BR SCT002 OVC003 12/11 Q1011 TEMPO BKN003
EHBK - Maastricht
Gewijzigd: 21-05-2019 02:25
Nevel, Bewolking  
Nevel, Bewolking  
   Wind: WNW 13 km/h
Wind: WNW 13 km/h
Temperatuur: 11°C
Dauwpunt: 10°C
Vochtigheid: 94%
Barometer: 1011 hPa
Bewolking: Bewolking
Zicht: 4 km
Bewolking: Bewolking 500 ft
EHBK 210025Z AUTO 30007KT 230V350 4100 BR OVC005 11/10 Q1011
ELLX - Luxemburg
Gewijzigd: 21-05-2019 02:20
Bewolking  
Bewolking  
   Wind: WNW 18.5 km/h
Wind: WNW 18.5 km/h
Temperatuur: 11°C
Dauwpunt: 9°C
Vochtigheid: 88%
Barometer: 1010 hPa
Bewolking: Bewolking
Zicht: meer dan 10 km
Bewolking: Gedeeltelijk bewolkt 800 ft,
Bewolking 1000 ft
ELLX 210020Z AUTO 30010KT 270V340 9999 SCT008/// OVC010/// 11/09 Q1010 NOSIG
EDDL - Dusseldorf
Gewijzigd: 21-05-2019 02:20
Lichte (mot)regen, Nevel, Bewolking  
Lichte (mot)regen, Nevel, Bewolking  
   Wind: WNW 16.7 km/h
Wind: WNW 16.7 km/h
Temperatuur: 13°C
Dauwpunt: 12°C
Vochtigheid: 94%
Barometer: 1009 hPa
Bewolking: Bewolking
Zicht: 2 km
Bewolking: Bewolking 400 ft
EDDL 210020Z 30009KT 2300 -DZ BR OVC004 13/12 Q1009 NOSIG
  

Script ontwikkeld door  Saratoga-weather.org Aangepast voor de template door  Weerstation Leuven